sensor_id;sensor_type;location;lat;lon;timestamp;pressure;altitude;pressure_sealevel;temperature;humidity
62122;BME280;48108;47.532;19.084;2023-01-31T05:03:01;100274.22;;;2.41;100.00
62122;BME280;48108;47.532;19.084;2023-01-31T05:06:04;100282.19;;;2.41;100.00
62122;BME280;48108;47.532;19.084;2023-01-31T05:09:07;100284.47;;;2.46;100.00
62122;BME280;48108;47.532;19.084;2023-01-31T05:12:10;100278.13;;;2.37;100.00
62122;BME280;48108;47.532;19.084;2023-01-31T05:15:13;100304.19;;;2.32;100.00
62122;BME280;48108;47.532;19.084;2023-01-31T05:18:16;100302.13;;;2.36;100.00
62122;BME280;48108;47.532;19.084;2023-01-31T05:21:19;100293.97;;;2.16;100.00
62122;BME280;48108;47.532;19.084;2023-01-31T05:24:23;100295.88;;;1.93;100.00
62122;BME280;48108;47.532;19.084;2023-01-31T05:27:26;100287.47;;;1.77;100.00
62122;BME280;48108;47.532;19.084;2023-01-31T05:30:29;100291.81;;;1.67;100.00
62122;BME280;48108;47.532;19.084;2023-01-31T05:33:33;100298.22;;;1.53;100.00
62122;BME280;48108;47.532;19.084;2023-01-31T05:36:36;100287.87;;;1.50;100.00
62122;BME280;48108;47.532;19.084;2023-01-31T05:39:39;100286.19;;;1.38;100.00
62122;BME280;48108;47.532;19.084;2023-01-31T05:42:42;100294.34;;;1.34;100.00
62122;BME280;48108;47.532;19.084;2023-01-31T05:45:47;100299.66;;;1.34;100.00
62122;BME280;48108;47.532;19.084;2023-01-31T05:48:50;100289.94;;;1.35;100.00
62122;BME280;48108;47.532;19.084;2023-01-31T05:51:53;100282.06;;;1.33;100.00
62122;BME280;48108;47.532;19.084;2023-01-31T05:54:55;100280.50;;;1.42;100.00
62122;BME280;48108;47.532;19.084;2023-01-31T05:57:58;100276.03;;;1.43;100.00
62122;BME280;48108;47.532;19.084;2023-01-31T06:01:03;100269.53;;;1.47;100.00
62122;BME280;48108;47.532;19.084;2023-01-31T06:04:06;100270.22;;;1.60;100.00
62122;BME280;48108;47.532;19.084;2023-01-31T06:07:08;100256.47;;;1.66;100.00
62122;BME280;48108;47.532;19.084;2023-01-31T06:10:11;100260.81;;;1.67;100.00
62122;BME280;48108;47.532;19.084;2023-01-31T06:13:15;100263.22;;;1.70;100.00
62122;BME280;48108;47.532;19.084;2023-01-31T06:16:17;100271.81;;;1.63;100.00
62122;BME280;48108;47.532;19.084;2023-01-31T06:19:20;100284.81;;;1.66;100.00
62122;BME280;48108;47.532;19.084;2023-01-31T06:22:27;100284.47;;;1.70;100.00
62122;BME280;48108;47.532;19.084;2023-01-31T06:25:30;100285.31;;;1.71;100.00
62122;BME280;48108;47.532;19.084;2023-01-31T06:28:35;100295.91;;;1.71;100.00
62122;BME280;48108;47.532;19.084;2023-01-31T06:31:38;100292.19;;;1.73;100.00
62122;BME280;48108;47.532;19.084;2023-01-31T06:34:41;100306.78;;;1.79;100.00
62122;BME280;48108;47.532;19.084;2023-01-31T06:37:43;100317.38;;;1.79;100.00
62122;BME280;48108;47.532;19.084;2023-01-31T06:40:46;100313.75;;;1.80;100.00
62122;BME280;48108;47.532;19.084;2023-01-31T06:43:49;100318.09;;;1.81;100.00
62122;BME280;48108;47.532;19.084;2023-01-31T06:46:52;100311.59;;;1.85;100.00
62122;BME280;48108;47.532;19.084;2023-01-31T06:49:56;100319.63;;;1.95;100.00
62122;BME280;48108;47.532;19.084;2023-01-31T06:52:59;100341.97;;;1.92;100.00
62122;BME280;48108;47.532;19.084;2023-01-31T06:56:01;100333.38;;;2.00;100.00
62122;BME280;48108;47.532;19.084;2023-01-31T06:59:04;100339.28;;;2.03;100.00
62122;BME280;48108;47.532;19.084;2023-01-31T07:02:09;100348.69;;;2.08;100.00
62122;BME280;48108;47.532;19.084;2023-01-31T07:05:13;100346.16;;;2.17;100.00
62122;BME280;48108;47.532;19.084;2023-01-31T07:08:16;100341.75;;;2.27;100.00
62122;BME280;48108;47.532;19.084;2023-01-31T07:11:21;100345.22;;;2.39;100.00
62122;BME280;48108;47.532;19.084;2023-01-31T07:14:24;100355.59;;;2.42;100.00
62122;BME280;48108;47.532;19.084;2023-01-31T07:17:29;100348.09;;;2.47;100.00
62122;BME280;48108;47.532;19.084;2023-01-31T07:20:32;100364.00;;;2.59;100.00
62122;BME280;48108;47.532;19.084;2023-01-31T07:24:00;100367.56;;;2.69;100.00
62122;BME280;48108;47.532;19.084;2023-01-31T07:27:03;100370.22;;;2.69;100.00
62122;BME280;48108;47.532;19.084;2023-01-31T07:30:06;100369.94;;;2.83;100.00
62122;BME280;48108;47.532;19.084;2023-01-31T07:33:10;100390.19;;;2.95;100.00
62122;BME280;48108;47.532;19.084;2023-01-31T07:36:15;100392.72;;;3.18;100.00
62122;BME280;48108;47.532;19.084;2023-01-31T07:39:21;100406.00;;;3.60;100.00
62122;BME280;48108;47.532;19.084;2023-01-31T07:42:27;100406.84;;;3.60;100.00
62122;BME280;48108;47.532;19.084;2023-01-31T07:45:30;100428.53;;;3.56;100.00
62122;BME280;48108;47.532;19.084;2023-01-31T07:48:33;100408.34;;;3.53;100.00
62122;BME280;48108;47.532;19.084;2023-01-31T07:51:36;100416.37;;;3.42;100.00
62122;BME280;48108;47.532;19.084;2023-01-31T07:54:41;100402.69;;;3.47;100.00
62122;BME280;48108;47.532;19.084;2023-01-31T07:57:44;100427.94;;;3.52;100.00
62122;BME280;48108;47.532;19.084;2023-01-31T08:00:47;100436.66;;;3.54;100.00
62122;BME280;48108;47.532;19.084;2023-01-31T08:04:11;100424.91;;;3.57;98.91
62122;BME280;48108;47.532;19.084;2023-01-31T08:07:24;100431.91;;;3.58;98.83
62122;BME280;48108;47.532;19.084;2023-01-31T08:10:28;100429.16;;;3.69;97.67
62122;BME280;48108;47.532;19.084;2023-01-31T08:13:33;100428.13;;;3.91;97.80
62122;BME280;48108;47.532;19.084;2023-01-31T08:16:37;100440.72;;;4.10;96.32
62122;BME280;48108;47.532;19.084;2023-01-31T08:19:39;100452.38;;;4.19;95.17
62122;BME280;48108;47.532;19.084;2023-01-31T08:22:42;100454.22;;;4.28;94.53
62122;BME280;48108;47.532;19.084;2023-01-31T08:25:46;100460.50;;;4.27;94.59
62122;BME280;48108;47.532;19.084;2023-01-31T08:28:50;100481.81;;;4.17;95.00
62122;BME280;48108;47.532;19.084;2023-01-31T08:31:53;100498.34;;;4.11;95.62
62122;BME280;48108;47.532;19.084;2023-01-31T08:34:56;100506.69;;;4.27;94.01
62122;BME280;48108;47.532;19.084;2023-01-31T08:38:03;100516.94;;;4.32;93.65
62122;BME280;48108;47.532;19.084;2023-01-31T08:41:19;100514.25;;;4.32;94.27
62122;BME280;48108;47.532;19.084;2023-01-31T08:44:22;100517.50;;;4.36;93.71
62122;BME280;48108;47.532;19.084;2023-01-31T08:47:26;100523.44;;;4.39;93.16
62122;BME280;48108;47.532;19.084;2023-01-31T08:50:31;100539.34;;;4.50;93.22
62122;BME280;48108;47.532;19.084;2023-01-31T08:53:41;100543.13;;;4.58;92.30
62122;BME280;48108;47.532;19.084;2023-01-31T08:56:47;100545.87;;;4.46;93.22
62122;BME280;48108;47.532;19.084;2023-01-31T08:59:50;100547.06;;;4.53;92.56
62122;BME280;48108;47.532;19.084;2023-01-31T09:02:54;100553.41;;;4.62;92.49
62122;BME280;48108;47.532;19.084;2023-01-31T09:05:58;100553.81;;;4.67;92.74
62122;BME280;48108;47.532;19.084;2023-01-31T09:09:02;100554.84;;;4.76;91.71
62122;BME280;48108;47.532;19.084;2023-01-31T09:12:06;100565.91;;;4.71;91.29
62122;BME280;48108;47.532;19.084;2023-01-31T09:15:09;100563.81;;;4.75;90.35
62122;BME280;48108;47.532;19.084;2023-01-31T09:18:12;100564.00;;;4.83;89.06
62122;BME280;48108;47.532;19.084;2023-01-31T09:21:18;100574.34;;;4.76;88.13
62122;BME280;48108;47.532;19.084;2023-01-31T09:24:21;100571.56;;;4.88;88.41
62122;BME280;48108;47.532;19.084;2023-01-31T09:27:24;100585.69;;;5.09;90.58
62122;BME280;48108;47.532;19.084;2023-01-31T09:30:27;100580.75;;;5.14;88.82
62122;BME280;48108;47.532;19.084;2023-01-31T09:33:32;100597.38;;;5.18;88.82
62122;BME280;48108;47.532;19.084;2023-01-31T09:36:35;100592.31;;;5.25;87.23
62122;BME280;48108;47.532;19.084;2023-01-31T09:39:38;100592.97;;;5.17;85.78
62122;BME280;48108;47.532;19.084;2023-01-31T09:42:43;100590.63;;;5.33;84.75
62122;BME280;48108;47.532;19.084;2023-01-31T09:45:47;100593.75;;;5.38;85.60
62122;BME280;48108;47.532;19.084;2023-01-31T09:48:53;100594.13;;;5.34;84.24
62122;BME280;48108;47.532;19.084;2023-01-31T09:51:59;100584.84;;;5.38;84.56
62122;BME280;48108;47.532;19.084;2023-01-31T09:55:05;100589.22;;;5.58;83.65
62122;BME280;48108;47.532;19.084;2023-01-31T10:01:59;100598.34;;;5.85;81.45
62122;BME280;48108;47.532;19.084;2023-01-31T10:05:29;100600.50;;;5.62;82.86
62122;BME280;48108;47.532;19.084;2023-01-31T10:11:58;100599.63;;;5.81;83.45
62122;BME280;48108;47.532;19.084;2023-01-31T10:15:05;100609.31;;;5.82;84.16
62122;BME280;48108;47.532;19.084;2023-01-31T10:18:20;100601.22;;;6.03;84.00
62122;BME280;48108;47.532;19.084;2023-01-31T10:21:29;100603.84;;;6.12;81.69
62122;BME280;48108;47.532;19.084;2023-01-31T10:24:42;100605.47;;;6.43;81.27
62122;BME280;48108;47.532;19.084;2023-01-31T10:27:50;100598.56;;;6.50;78.15
62122;BME280;48108;47.532;19.084;2023-01-31T10:30:55;100586.94;;;6.22;77.16
62122;BME280;48108;47.532;19.084;2023-01-31T10:34:11;100595.88;;;6.03;77.32
62122;BME280;48108;47.532;19.084;2023-01-31T10:37:32;100589.37;;;5.96;77.10
62122;BME280;48108;47.532;19.084;2023-01-31T10:40:41;100585.72;;;6.06;77.76
62122;BME280;48108;47.532;19.084;2023-01-31T10:43:52;100590.50;;;6.12;77.35
62122;BME280;48108;47.532;19.084;2023-01-31T10:46:59;100587.38;;;6.27;76.99
62122;BME280;48108;47.532;19.084;2023-01-31T10:57:04;100601.47;;;5.80;75.29
62122;BME280;48108;47.532;19.084;2023-01-31T11:00:19;100581.22;;;5.58;75.86
62122;BME280;48108;47.532;19.084;2023-01-31T11:03:24;100575.87;;;5.78;76.64
62122;BME280;48108;47.532;19.084;2023-01-31T11:06:27;100559.88;;;5.97;74.39
62122;BME280;48108;47.532;19.084;2023-01-31T11:09:37;100560.66;;;6.07;72.34
62122;BME280;48108;47.532;19.084;2023-01-31T11:12:51;100560.25;;;6.02;72.66
62122;BME280;48108;47.532;19.084;2023-01-31T11:15:55;100551.69;;;5.99;72.89
62122;BME280;48108;47.532;19.084;2023-01-31T11:19:02;100555.47;;;5.96;75.77
62122;BME280;48108;47.532;19.084;2023-01-31T11:22:06;100544.88;;;6.14;74.59
62122;BME280;48108;47.532;19.084;2023-01-31T11:25:19;100547.56;;;6.14;72.52
62122;BME280;48108;47.532;19.084;2023-01-31T11:28:32;100556.16;;;6.08;73.00
62122;BME280;48108;47.532;19.084;2023-01-31T11:31:39;100545.75;;;6.15;69.31
62122;BME280;48108;47.532;19.084;2023-01-31T11:35:20;100546.09;;;6.39;72.27
62122;BME280;48108;47.532;19.084;2023-01-31T11:38:25;100544.53;;;6.36;69.38
62122;BME280;48108;47.532;19.084;2023-01-31T11:41:35;100546.97;;;6.67;66.92
62122;BME280;48108;47.532;19.084;2023-01-31T11:51:27;100530.81;;;7.04;65.02
62122;BME280;48108;47.532;19.084;2023-01-31T11:54:33;100525.69;;;7.65;62.64
62122;BME280;48108;47.532;19.084;2023-01-31T11:57:37;100522.31;;;7.63;60.58
62122;BME280;48108;47.532;19.084;2023-01-31T12:00:51;100530.19;;;7.82;60.96
62122;BME280;48108;47.532;19.084;2023-01-31T12:04:02;100518.37;;;8.19;57.85
62122;BME280;48108;47.532;19.084;2023-01-31T12:07:21;100534.34;;;8.29;57.57
62122;BME280;48108;47.532;19.084;2023-01-31T12:10:40;100525.34;;;8.12;56.34
62122;BME280;48108;47.532;19.084;2023-01-31T12:13:51;100531.03;;;7.65;58.03
62122;BME280;48108;47.532;19.084;2023-01-31T12:16:55;100534.44;;;7.49;59.51
62122;BME280;48108;47.532;19.084;2023-01-31T12:20:04;100523.34;;;7.88;58.32
62122;BME280;48108;47.532;19.084;2023-01-31T12:23:43;100529.19;;;8.09;58.41
62122;BME280;48108;47.532;19.084;2023-01-31T12:31:24;100508.34;;;9.39;53.58
62122;BME280;48108;47.532;19.084;2023-01-31T12:38:37;100529.44;;;8.50;54.69
62122;BME280;48108;47.532;19.084;2023-01-31T12:48:41;100518.75;;;8.58;54.81
62122;BME280;48108;47.532;19.084;2023-01-31T13:02:34;100531.91;;;6.84;63.01
62122;BME280;48108;47.532;19.084;2023-01-31T13:05:49;100544.41;;;6.38;65.21
62122;BME280;48108;47.532;19.084;2023-01-31T13:09:04;100558.31;;;5.95;65.73
62122;BME280;48108;47.532;19.084;2023-01-31T13:12:19;100565.19;;;5.78;65.69
62122;BME280;48108;47.532;19.084;2023-01-31T13:15:39;100578.28;;;5.52;65.52
62122;BME280;48108;47.532;19.084;2023-01-31T13:18:48;100578.81;;;5.55;65.81
62122;BME280;48108;47.532;19.084;2023-01-31T13:21:55;100578.56;;;5.39;68.15
62122;BME280;48108;47.532;19.084;2023-01-31T13:28:40;100572.94;;;6.00;68.62
62122;BME280;48108;47.532;19.084;2023-01-31T13:31:49;100584.59;;;6.09;66.46
62122;BME280;48108;47.532;19.084;2023-01-31T13:35:17;100592.16;;;6.13;67.19
62122;BME280;48108;47.532;19.084;2023-01-31T13:38:26;100594.59;;;5.97;67.34
62122;BME280;48108;47.532;19.084;2023-01-31T13:41:32;100594.97;;;5.93;68.05
62122;BME280;48108;47.532;19.084;2023-01-31T13:44:36;100597.09;;;5.89;67.81
62122;BME280;48108;47.532;19.084;2023-01-31T13:47:50;100593.59;;;5.88;67.94
62122;BME280;48108;47.532;19.084;2023-01-31T13:51:12;100592.19;;;5.65;68.13
62122;BME280;48108;47.532;19.084;2023-01-31T13:54:36;100594.56;;;5.58;69.60
62122;BME280;48108;47.532;19.084;2023-01-31T13:57:42;100597.13;;;5.60;71.02
62122;BME280;48108;47.532;19.084;2023-01-31T14:07:17;100603.25;;;5.31;70.68
62122;BME280;48108;47.532;19.084;2023-01-31T14:10:24;100607.88;;;5.29;71.37
62122;BME280;48108;47.532;19.084;2023-01-31T14:13:40;100604.53;;;5.37;72.27
62122;BME280;48108;47.532;19.084;2023-01-31T14:16:44;100611.44;;;5.39;72.43
62122;BME280;48108;47.532;19.084;2023-01-31T14:23:30;100626.63;;;5.39;73.64
62122;BME280;48108;47.532;19.084;2023-01-31T14:26:50;100621.56;;;5.36;74.30
62122;BME280;48108;47.532;19.084;2023-01-31T14:33:25;100620.22;;;5.01;76.65
62122;BME280;48108;47.532;19.084;2023-01-31T14:36:43;100615.22;;;4.77;78.59
62122;BME280;48108;47.532;19.084;2023-01-31T14:47:06;100623.16;;;4.67;83.05
62122;BME280;48108;47.532;19.084;2023-01-31T14:53:58;100630.28;;;4.57;85.90
62122;BME280;48108;47.532;19.084;2023-01-31T14:57:26;100631.78;;;4.50;88.71
62122;BME280;48108;47.532;19.084;2023-01-31T15:00:35;100630.47;;;4.44;91.70
62122;BME280;48108;47.532;19.084;2023-01-31T15:03:50;100625.03;;;4.46;90.71
62122;BME280;48108;47.532;19.084;2023-01-31T15:06:55;100618.94;;;4.34;92.46
62122;BME280;48108;47.532;19.084;2023-01-31T15:09:58;100614.59;;;4.33;93.49
62122;BME280;48108;47.532;19.084;2023-01-31T15:13:01;100616.53;;;4.31;94.61
62122;BME280;48108;47.532;19.084;2023-01-31T15:16:25;100621.13;;;4.29;94.43
62122;BME280;48108;47.532;19.084;2023-01-31T15:19:33;100628.56;;;4.25;95.80
62122;BME280;48108;47.532;19.084;2023-01-31T15:22:43;100632.31;;;4.23;96.55
62122;BME280;48108;47.532;19.084;2023-01-31T15:25:47;100639.34;;;4.24;96.42
62122;BME280;48108;47.532;19.084;2023-01-31T15:28:52;100636.87;;;4.11;98.58
62122;BME280;48108;47.532;19.084;2023-01-31T15:31:59;100633.09;;;3.93;98.85
62122;BME280;48108;47.532;19.084;2023-01-31T15:35:16;100643.41;;;3.86;100.00
62122;BME280;48108;47.532;19.084;2023-01-31T15:41:53;100641.66;;;3.75;100.00
62122;BME280;48108;47.532;19.084;2023-01-31T15:45:30;100640.94;;;3.73;100.00
62122;BME280;48108;47.532;19.084;2023-01-31T15:57:13;100628.31;;;3.86;100.00
62122;BME280;48108;47.532;19.084;2023-01-31T16:27:12;100634.88;;;3.39;100.00
62122;BME280;48108;47.532;19.084;2023-01-31T16:30:18;100633.78;;;3.41;100.00
62122;BME280;48108;47.532;19.084;2023-01-31T16:33:22;100636.91;;;3.47;100.00
62122;BME280;48108;47.532;19.084;2023-01-31T16:36:32;100633.19;;;3.38;100.00
62122;BME280;48108;47.532;19.084;2023-01-31T16:39:38;100643.91;;;3.48;100.00
62122;BME280;48108;47.532;19.084;2023-01-31T16:42:43;100641.06;;;3.39;100.00
62122;BME280;48108;47.532;19.084;2023-01-31T16:46:10;100645.88;;;3.46;100.00
62122;BME280;48108;47.532;19.084;2023-01-31T16:49:25;100649.50;;;3.45;100.00
62122;BME280;48108;47.532;19.084;2023-01-31T16:52:29;100637.50;;;3.50;100.00
62122;BME280;48108;47.532;19.084;2023-01-31T16:55:32;100644.88;;;3.58;100.00
